createdAt,value
2024-02-24T00:00:06.781Z,149.00
2024-02-24T00:00:38.709Z,148.67
2024-02-24T00:01:10.650Z,147.67
2024-02-24T00:01:42.594Z,146.00
2024-02-24T00:02:14.504Z,143.67
2024-02-24T00:02:46.453Z,143.67
2024-02-24T00:03:19.437Z,144.67
2024-02-24T00:03:52.006Z,146.33
2024-02-24T00:04:23.974Z,148.67
2024-02-24T00:04:57.921Z,154.33
2024-02-24T00:05:29.880Z,163.67
2024-02-24T00:06:02.011Z,170.67
2024-02-24T00:06:34.060Z,173.33
2024-02-24T00:07:06.019Z,172.33
2024-02-24T00:07:37.973Z,172.00
2024-02-24T00:08:09.936Z,172.33
2024-02-24T00:08:43.466Z,175.33
2024-02-24T00:09:15.624Z,179.67
2024-02-24T00:09:47.541Z,180.00
2024-02-24T00:10:19.454Z,177.33
2024-02-24T00:10:51.430Z,175.00
2024-02-24T00:11:23.478Z,173.33
2024-02-24T00:11:55.538Z,172.67
2024-02-24T00:12:27.489Z,172.00
2024-02-24T00:12:59.479Z,170.67
2024-02-24T00:13:31.443Z,167.00
2024-02-24T00:14:03.360Z,161.67
2024-02-24T00:14:35.321Z,159.33
2024-02-24T00:15:07.732Z,157.67
2024-02-24T00:15:39.714Z,157.00
2024-02-24T00:16:13.965Z,156.67
2024-02-24T00:16:46.096Z,154.00
2024-02-24T00:17:18.342Z,147.00
2024-02-24T00:17:50.438Z,144.33
2024-02-24T00:18:22.666Z,145.67
2024-02-24T00:18:56.868Z,146.00
2024-02-24T00:19:28.863Z,146.00
2024-02-24T00:20:00.939Z,144.00
2024-02-24T00:20:32.974Z,138.67
2024-02-24T00:21:05.164Z,129.00
2024-02-24T00:21:37.073Z,122.67
2024-02-24T00:22:09.025Z,118.33
2024-02-24T00:22:41.625Z,110.33
2024-02-24T00:23:13.572Z,102.67
2024-02-24T00:23:45.581Z,98.00
2024-02-24T00:24:17.732Z,97.33
2024-02-24T00:24:49.785Z,98.67
2024-02-24T00:25:21.743Z,99.00
2024-02-24T00:25:53.651Z,99.33
2024-02-24T00:26:25.603Z,101.00
2024-02-24T00:26:57.535Z,101.67
2024-02-24T00:27:30.528Z,100.67
2024-02-24T00:28:02.459Z,100.00
2024-02-24T00:28:34.349Z,99.00
2024-02-24T00:29:06.299Z,96.00
2024-02-24T00:29:38.270Z,94.33
2024-02-24T00:30:10.473Z,93.33
2024-02-24T00:30:42.443Z,93.00
2024-02-24T00:31:14.329Z,91.33
2024-02-24T00:31:46.192Z,93.67
2024-02-24T00:32:18.375Z,95.67
2024-02-24T00:32:50.437Z,96.67
2024-02-24T00:33:22.483Z,96.67
2024-02-24T00:33:54.492Z,95.67
2024-02-24T00:34:26.412Z,95.67
2024-02-24T00:34:58.356Z,94.00
2024-02-24T00:35:30.507Z,91.00
2024-02-24T00:36:04.977Z,88.00
2024-02-24T00:36:36.980Z,86.00
2024-02-24T00:37:08.851Z,86.00
2024-02-24T00:37:40.735Z,86.33
2024-02-24T00:38:13.602Z,87.67
2024-02-24T00:38:45.704Z,88.67
2024-02-24T00:39:17.611Z,89.00
2024-02-24T00:39:49.624Z,89.33
2024-02-24T00:40:21.581Z,90.00
2024-02-24T00:40:53.506Z,89.67
2024-02-24T00:41:25.586Z,89.00
2024-02-24T00:41:57.463Z,88.00
2024-02-24T00:42:29.317Z,86.67
2024-02-24T00:43:01.220Z,84.33
2024-02-24T00:43:33.169Z,82.00
2024-02-24T00:44:05.234Z,80.33
2024-02-24T00:44:37.126Z,78.00
2024-02-24T00:45:09.165Z,76.00
2024-02-24T00:45:41.092Z,74.00
2024-02-24T00:46:13.065Z,72.00
2024-02-24T00:46:44.999Z,70.33
2024-02-24T00:47:16.946Z,69.00
2024-02-24T00:47:49.044Z,68.33
2024-02-24T00:48:21.100Z,68.00
2024-02-24T00:48:53.082Z,66.67
2024-02-24T00:49:25.083Z,64.67
2024-02-24T00:49:57.585Z,63.33
2024-02-24T00:50:30.659Z,63.00
2024-02-24T00:51:03.052Z,63.00
2024-02-24T00:51:34.998Z,63.00
2024-02-24T00:52:06.943Z,63.00
2024-02-24T00:52:38.856Z,63.67
2024-02-24T00:53:10.779Z,65.00
2024-02-24T00:53:42.731Z,65.00
2024-02-24T00:54:14.802Z,65.00
2024-02-24T00:54:46.792Z,65.00
2024-02-24T00:55:18.749Z,64.33
2024-02-24T00:55:51.259Z,62.67
2024-02-24T00:56:23.192Z,62.00
2024-02-24T00:56:55.184Z,61.00
2024-02-24T00:57:27.126Z,62.00
2024-02-24T00:57:59.430Z,62.00
2024-02-24T00:58:31.323Z,63.00
2024-02-24T00:59:03.433Z,63.00
2024-02-24T00:59:35.470Z,63.33
2024-02-24T01:00:08.155Z,64.00
2024-02-24T01:00:40.101Z,64.00
2024-02-24T01:01:12.061Z,64.00
2024-02-24T01:01:43.977Z,65.00
2024-02-24T01:02:16.027Z,65.00
2024-02-24T01:02:48.112Z,65.00
2024-02-24T01:03:20.037Z,65.00
2024-02-24T01:03:52.008Z,65.33
2024-02-24T01:04:25.873Z,66.00
2024-02-24T01:04:58.277Z,66.00
2024-02-24T01:05:30.277Z,66.00
2024-02-24T01:06:02.231Z,66.00
2024-02-24T01:06:34.142Z,66.00
2024-02-24T01:07:06.754Z,66.00
2024-02-24T01:07:38.681Z,66.33
2024-02-24T01:08:10.786Z,67.00
2024-02-24T01:08:42.854Z,68.33
2024-02-24T01:09:14.797Z,70.00
2024-02-24T01:09:46.711Z,71.00
2024-02-24T01:10:18.651Z,72.00
2024-02-24T01:10:50.681Z,72.67
2024-02-24T01:11:22.768Z,73.67
2024-02-24T01:11:54.909Z,74.00
2024-02-24T01:12:26.945Z,74.00
2024-02-24T01:12:58.838Z,75.00
2024-02-24T01:13:30.815Z,75.33
2024-02-24T01:14:02.911Z,76.00
2024-02-24T01:14:34.890Z,76.00
2024-02-24T01:15:07.258Z,76.00
2024-02-24T01:15:39.402Z,76.00
2024-02-24T01:16:11.489Z,76.00
2024-02-24T01:16:45.698Z,76.00
2024-02-24T01:17:17.737Z,76.00
2024-02-24T01:17:52.225Z,76.00
2024-02-24T01:18:24.802Z,76.00
2024-02-24T01:18:56.983Z,75.00
2024-02-24T01:19:29.054Z,75.00
2024-02-24T01:20:00.989Z,75.00
2024-02-24T01:20:32.982Z,75.67
2024-02-24T01:21:05.407Z,76.00
2024-02-24T01:21:43.549Z,76.33
2024-02-24T01:22:15.487Z,77.00
2024-02-24T01:22:51.419Z,77.00
2024-02-24T01:23:23.910Z,78.00
2024-02-24T01:23:55.994Z,79.33
2024-02-24T01:24:27.925Z,80.67
2024-02-24T01:24:59.827Z,81.33
2024-02-24T01:25:31.758Z,83.67
2024-02-24T01:26:04.061Z,85.00
2024-02-24T01:26:36.198Z,85.00
2024-02-24T01:27:08.163Z,84.67
2024-02-24T01:27:40.078Z,84.00
2024-02-24T01:28:12.078Z,83.33
2024-02-24T01:28:46.797Z,82.33
2024-02-24T01:29:18.785Z,80.67
2024-02-24T01:29:50.758Z,79.33
2024-02-24T01:30:23.606Z,78.33
2024-02-24T01:30:55.531Z,77.33
2024-02-24T01:31:27.473Z,77.00
2024-02-24T01:32:02.406Z,77.00
2024-02-24T01:32:34.807Z,75.67
2024-02-24T01:33:07.127Z,74.00
2024-02-24T01:33:39.170Z,72.33
2024-02-24T01:34:11.157Z,71.00
2024-02-24T01:34:43.304Z,70.67
2024-02-24T01:35:15.298Z,70.00
2024-02-24T01:35:47.269Z,69.33
2024-02-24T01:36:19.246Z,68.67
2024-02-24T01:36:51.445Z,67.67
2024-02-24T01:37:24.843Z,65.67
2024-02-24T01:37:56.852Z,64.33
2024-02-24T01:38:28.770Z,63.00
2024-02-24T01:39:00.694Z,63.33
2024-02-24T01:39:33.349Z,64.00
2024-02-24T01:40:06.972Z,65.33
2024-02-24T01:40:38.891Z,66.67
2024-02-24T01:41:11.690Z,67.00
2024-02-24T01:41:44.743Z,66.67
2024-02-24T01:42:16.757Z,66.00
2024-02-24T01:42:48.688Z,64.00
2024-02-24T01:43:30.703Z,61.00
2024-02-24T01:44:02.575Z,59.33
2024-02-24T01:44:34.607Z,59.00
2024-02-24T01:45:07.080Z,59.67
2024-02-24T01:45:39.051Z,59.33
2024-02-24T01:46:14.699Z,59.00
2024-02-24T01:46:49.646Z,59.00
2024-02-24T01:47:24.281Z,59.00
2024-02-24T01:47:58.210Z,58.33
2024-02-24T01:48:32.227Z,57.33
2024-02-24T01:49:04.524Z,57.00
2024-02-24T01:49:37.362Z,57.67
2024-02-24T01:50:13.849Z,58.00
2024-02-24T01:50:48.017Z,57.00
2024-02-24T01:51:20.244Z,56.33
2024-02-24T01:51:52.545Z,55.33
2024-02-24T01:52:26.730Z,54.00
2024-02-24T01:52:58.938Z,52.33
2024-02-24T01:53:32.382Z,50.33
2024-02-24T01:54:04.525Z,48.67
2024-02-24T01:54:37.582Z,47.33
2024-02-24T01:55:11.036Z,45.67
2024-02-24T01:55:44.654Z,45.00
2024-02-24T01:56:16.766Z,44.00
2024-02-24T01:56:48.869Z,44.33
2024-02-24T01:57:21.426Z,45.00
2024-02-24T01:57:55.469Z,45.67
2024-02-24T01:58:30.203Z,46.00
2024-02-24T01:59:02.299Z,46.67
2024-02-24T01:59:34.564Z,47.00
2024-02-24T02:00:07.188Z,48.33
2024-02-24T02:00:39.335Z,50.00
2024-02-24T02:01:12.002Z,51.00
2024-02-24T02:01:44.113Z,51.00
2024-02-24T02:02:16.631Z,51.00
2024-02-24T02:02:49.117Z,50.33
2024-02-24T02:03:21.064Z,50.00
2024-02-24T02:03:53.774Z,49.67
2024-02-24T02:04:26.453Z,49.00
2024-02-24T02:04:58.444Z,49.00
2024-02-24T02:05:30.942Z,48.00
2024-02-24T02:06:03.844Z,48.00
2024-02-24T02:06:36.150Z,48.00
2024-02-24T02:07:08.467Z,48.00
2024-02-24T02:07:40.376Z,48.00
2024-02-24T02:08:12.337Z,48.00
2024-02-24T02:08:44.460Z,48.00
2024-02-24T02:09:16.487Z,48.67
2024-02-24T02:09:58.872Z,49.67
2024-02-24T02:10:54.115Z,50.00
2024-02-24T02:11:26.249Z,51.00
2024-02-24T02:12:03.280Z,51.00
2024-02-24T02:12:37.341Z,51.00
2024-02-24T02:13:09.374Z,51.00
2024-02-24T02:13:41.271Z,51.00
2024-02-24T02:14:13.233Z,50.67
2024-02-24T02:14:45.274Z,50.33
2024-02-24T02:15:17.279Z,51.00
2024-02-24T02:15:57.665Z,51.00
2024-02-24T02:16:29.647Z,51.00
2024-02-24T02:17:01.610Z,51.33
2024-02-24T02:17:34.006Z,52.00
2024-02-24T02:18:06.855Z,52.00
2024-02-24T02:18:39.033Z,52.00
2024-02-24T02:19:11.163Z,52.00
2024-02-24T02:19:43.301Z,52.00
2024-02-24T02:20:15.214Z,52.00
2024-02-24T02:20:51.157Z,52.00
2024-02-24T02:21:24.406Z,52.00
2024-02-24T02:22:02.097Z,52.00
2024-02-24T02:22:34.095Z,52.00
2024-02-24T02:23:06.172Z,52.33
2024-02-24T02:23:38.310Z,53.00
2024-02-24T02:24:12.196Z,53.00
2024-02-24T02:24:49.582Z,53.00
2024-02-24T02:25:21.564Z,53.33
2024-02-24T02:25:55.852Z,54.00
2024-02-24T02:26:27.764Z,54.00
2024-02-24T02:26:59.692Z,54.33
2024-02-24T02:27:31.689Z,55.00
2024-02-24T02:28:03.831Z,55.00
2024-02-24T02:28:35.797Z,56.00
2024-02-24T02:29:07.719Z,56.67
2024-02-24T02:29:39.838Z,58.33
2024-02-24T02:30:12.142Z,59.67
2024-02-24T02:30:44.170Z,61.33
2024-02-24T02:31:16.497Z,63.00
2024-02-24T02:31:48.427Z,67.00
2024-02-24T02:32:20.627Z,73.67
2024-02-24T02:32:52.831Z,80.33
2024-02-24T02:33:25.108Z,87.67
2024-02-24T02:33:57.270Z,94.33
2024-02-24T02:34:29.661Z,100.67
2024-02-24T02:35:01.583Z,105.67
2024-02-24T02:35:33.548Z,110.00
2024-02-24T02:36:06.371Z,114.00
2024-02-24T02:36:38.321Z,116.67
2024-02-24T02:37:10.205Z,118.00
2024-02-24T02:37:42.077Z,118.33
2024-02-24T02:38:14.088Z,120.00
2024-02-24T02:38:46.076Z,121.00
2024-02-24T02:39:18.015Z,122.00
2024-02-24T02:39:50.030Z,124.33
2024-02-24T02:40:22.221Z,123.33
2024-02-24T02:40:54.526Z,117.00
2024-02-24T02:41:26.615Z,112.00
2024-02-24T02:41:58.862Z,111.00
2024-02-24T02:42:30.828Z,111.00
2024-02-24T02:43:03.035Z,112.67
2024-02-24T02:43:35.088Z,115.33
2024-02-24T02:44:07.121Z,118.00
2024-02-24T02:44:39.107Z,116.00
2024-02-24T02:45:11.210Z,114.00
2024-02-24T02:45:43.398Z,114.67
2024-02-24T02:46:15.291Z,115.67
2024-02-24T02:46:50.850Z,116.00
2024-02-24T02:47:24.208Z,115.00
2024-02-24T02:47:56.709Z,115.00
2024-02-24T02:48:28.854Z,115.00
2024-02-24T02:49:01.066Z,115.67
2024-02-24T02:49:33.272Z,116.33
2024-02-24T02:50:06.861Z,116.67
2024-02-24T02:50:38.846Z,116.00
2024-02-24T02:51:10.809Z,116.00
2024-02-24T02:51:42.684Z,116.00
2024-02-24T02:52:14.614Z,117.00
2024-02-24T02:52:46.746Z,117.67
2024-02-24T02:53:19.229Z,118.67
2024-02-24T02:53:51.236Z,118.67
2024-02-24T02:54:23.144Z,118.00
2024-02-24T02:54:55.024Z,116.67
2024-02-24T02:55:27.365Z,114.00
2024-02-24T02:55:59.254Z,112.00
2024-02-24T02:56:31.182Z,109.33
2024-02-24T02:57:03.378Z,108.00
2024-02-24T02:57:35.391Z,107.00
2024-02-24T02:58:08.141Z,106.00
2024-02-24T02:58:40.077Z,106.00
2024-02-24T02:59:11.977Z,106.00
2024-02-24T02:59:44.098Z,106.00
2024-02-24T03:00:16.543Z,106.00
2024-02-24T03:00:48.684Z,106.00
2024-02-24T03:01:20.613Z,106.33
2024-02-24T03:01:53.129Z,107.33
2024-02-24T03:02:25.074Z,110.33
2024-02-24T03:02:57.070Z,114.00
2024-02-24T03:03:29.042Z,114.67
2024-02-24T03:04:01.068Z,113.67
2024-02-24T03:04:33.030Z,109.67
2024-02-24T03:05:05.435Z,99.33
2024-02-24T03:05:37.444Z,87.00
2024-02-24T03:06:09.636Z,81.33
2024-02-24T03:06:41.718Z,78.67
2024-02-24T03:07:13.764Z,76.00
2024-02-24T03:07:45.721Z,69.00
2024-02-24T03:08:17.904Z,62.33
2024-02-24T03:08:49.954Z,57.33
2024-02-24T03:09:22.004Z,53.00
2024-02-24T03:09:53.894Z,50.67
2024-02-24T03:10:25.959Z,48.00
2024-02-24T03:10:58.075Z,45.33
2024-02-24T03:11:31.992Z,43.67
2024-02-24T03:12:04.186Z,43.00
2024-02-24T03:12:36.387Z,44.33
2024-02-24T03:13:08.411Z,44.67
2024-02-24T03:13:40.384Z,43.67
2024-02-24T03:14:12.403Z,43.00
2024-02-24T03:14:44.745Z,43.00
2024-02-24T03:15:16.863Z,43.00
2024-02-24T03:15:48.783Z,43.00
2024-02-24T03:16:20.684Z,43.67
2024-02-24T03:16:55.069Z,44.33
2024-02-24T03:17:27.348Z,46.33
2024-02-24T03:17:59.425Z,47.00
2024-02-24T03:18:31.544Z,45.67
2024-02-24T03:19:04.689Z,44.67
2024-02-24T03:19:37.297Z,42.67
2024-02-24T03:20:10.133Z,40.33
2024-02-24T03:20:42.146Z,39.67
2024-02-24T03:21:33.762Z,39.00
2024-02-24T03:22:05.724Z,38.00
2024-02-24T03:22:39.620Z,38.00
2024-02-24T03:23:11.600Z,38.00
2024-02-24T03:23:43.668Z,38.00
2024-02-24T03:24:15.604Z,37.00
2024-02-24T03:24:47.586Z,36.33
2024-02-24T03:25:19.896Z,35.33
2024-02-24T03:25:51.810Z,34.00
2024-02-24T03:26:23.900Z,33.33
2024-02-24T03:26:55.867Z,33.00
2024-02-24T03:27:27.798Z,33.00
2024-02-24T03:27:59.787Z,33.00
2024-02-24T03:28:31.689Z,34.00
2024-02-24T03:29:03.622Z,35.00
2024-02-24T03:29:35.744Z,35.67
2024-02-24T03:30:08.351Z,36.33
2024-02-24T03:30:40.298Z,37.33
2024-02-24T03:31:12.180Z,38.67
2024-02-24T03:31:44.114Z,40.33
2024-02-24T03:32:16.109Z,41.33
2024-02-24T03:32:48.115Z,42.67
2024-02-24T03:33:20.202Z,43.67
2024-02-24T03:33:54.610Z,45.33
2024-02-24T03:34:26.748Z,46.67
2024-02-24T03:34:58.678Z,48.33
2024-02-24T03:35:30.728Z,50.00
2024-02-24T03:36:03.198Z,51.67
2024-02-24T03:36:35.151Z,52.67
2024-02-24T03:37:07.065Z,53.67
2024-02-24T03:37:39.056Z,54.00
2024-02-24T03:38:10.926Z,54.00
2024-02-24T03:38:43.201Z,54.00
2024-02-24T03:39:15.262Z,54.00
2024-02-24T03:39:47.291Z,53.33
2024-02-24T03:40:19.309Z,53.00
2024-02-24T03:40:51.215Z,53.00
2024-02-24T03:41:23.116Z,53.00
2024-02-24T03:41:55.200Z,53.00
2024-02-24T03:42:27.183Z,53.00
2024-02-24T03:43:00.235Z,53.00
2024-02-24T03:43:32.152Z,53.00
2024-02-24T03:44:04.172Z,53.00
2024-02-24T03:44:36.107Z,53.00
2024-02-24T03:45:08.524Z,53.00
2024-02-24T03:45:40.384Z,53.33
2024-02-24T03:46:12.355Z,54.00
2024-02-24T03:46:44.229Z,54.00
2024-02-24T03:47:16.357Z,54.00
2024-02-24T03:47:48.322Z,54.33
2024-02-24T03:48:20.436Z,55.00
2024-02-24T03:48:52.496Z,55.00
2024-02-24T03:49:24.515Z,55.67
2024-02-24T03:49:56.495Z,56.00
2024-02-24T03:50:28.441Z,56.00
2024-02-24T03:51:01.627Z,56.00
2024-02-24T03:51:33.632Z,55.33
2024-02-24T03:52:05.951Z,55.00
2024-02-24T03:52:39.185Z,55.00
2024-02-24T03:53:11.085Z,55.00
2024-02-24T03:53:43.083Z,55.00
2024-02-24T03:54:15.046Z,55.00
2024-02-24T03:54:46.936Z,55.00
2024-02-24T03:55:18.830Z,55.67
2024-02-24T03:55:53.609Z,56.00
2024-02-24T03:56:25.553Z,57.33
2024-02-24T03:56:57.558Z,58.67
2024-02-24T03:57:29.442Z,60.33
2024-02-24T03:58:01.315Z,63.00
2024-02-24T03:58:33.281Z,65.33
2024-02-24T03:59:05.170Z,66.67
2024-02-24T03:59:37.249Z,67.67
2024-02-24T04:00:09.963Z,69.33
2024-02-24T04:00:41.925Z,70.67
2024-02-24T04:01:13.934Z,72.33
2024-02-24T04:01:46.129Z,74.33
2024-02-24T04:02:18.114Z,77.00
2024-02-24T04:02:50.063Z,78.67
2024-02-24T04:03:22.081Z,80.33
2024-02-24T04:03:55.453Z,82.00
2024-02-24T04:04:27.376Z,83.67
2024-02-24T04:05:01.993Z,83.67
2024-02-24T04:05:34.042Z,83.00
2024-02-24T04:06:07.284Z,84.33
2024-02-24T04:06:39.288Z,86.00
2024-02-24T04:07:11.729Z,87.00
2024-02-24T04:07:43.655Z,89.00
2024-02-24T04:08:16.238Z,93.00
2024-02-24T04:08:48.380Z,97.67
2024-02-24T04:09:20.352Z,101.00
2024-02-24T04:09:52.354Z,102.00
2024-02-24T04:10:24.341Z,101.33
2024-02-24T04:10:56.305Z,99.67
2024-02-24T04:11:28.326Z,96.00
2024-02-24T04:12:00.388Z,94.33
2024-02-24T04:12:32.745Z,93.33
2024-02-24T04:13:04.794Z,92.33
2024-02-24T04:13:36.676Z,91.33
2024-02-24T04:14:08.664Z,88.33
2024-02-24T04:14:40.670Z,80.00
2024-02-24T04:15:16.583Z,67.00
2024-02-24T04:15:49.337Z,61.33
2024-02-24T04:16:21.485Z,62.33
2024-02-24T04:16:53.421Z,59.00
2024-02-24T04:17:25.353Z,54.00
2024-02-24T04:17:57.549Z,50.33
2024-02-24T04:18:29.589Z,45.67
2024-02-24T04:19:02.325Z,37.33
2024-02-24T04:19:34.409Z,30.00
2024-02-24T04:20:07.091Z,25.33
2024-02-24T04:20:38.997Z,21.00
2024-02-24T04:21:10.908Z,18.33
2024-02-24T04:21:42.810Z,16.00
2024-02-24T04:22:14.681Z,13.67
2024-02-24T04:22:46.658Z,12.67
2024-02-24T04:23:18.633Z,11.67
2024-02-24T04:23:52.170Z,11.00
2024-02-24T04:24:24.342Z,10.00
2024-02-24T04:24:56.349Z,10.00
2024-02-24T04:25:28.275Z,10.00
2024-02-24T04:26:00.337Z,9.33
2024-02-24T04:26:32.404Z,9.00
2024-02-24T04:27:04.579Z,9.00
2024-02-24T04:27:37.433Z,9.00
2024-02-24T04:28:13.451Z,9.00
2024-02-24T04:28:45.359Z,9.00
2024-02-24T04:29:17.355Z,8.33
2024-02-24T04:29:49.302Z,8.00
2024-02-24T04:30:21.344Z,7.67
2024-02-24T04:30:53.302Z,7.00
2024-02-24T04:31:25.219Z,7.00
2024-02-24T04:31:57.174Z,7.00
2024-02-24T04:32:29.972Z,7.00
2024-02-24T04:33:02.263Z,7.00
2024-02-24T04:33:34.380Z,7.00
2024-02-24T04:34:06.445Z,7.00
2024-02-24T04:34:39.411Z,7.00
2024-02-24T04:35:12.499Z,7.00
2024-02-24T04:35:44.395Z,6.67
2024-02-24T04:36:16.344Z,6.00
2024-02-24T04:36:48.488Z,6.00
2024-02-24T04:37:20.476Z,6.00
2024-02-24T04:37:52.386Z,6.00
2024-02-24T04:38:24.362Z,6.00
2024-02-24T04:38:56.363Z,6.00
2024-02-24T04:39:28.265Z,6.00
2024-02-24T04:40:00.271Z,6.00
2024-02-24T04:40:32.251Z,6.00
2024-02-24T04:41:04.293Z,6.00
2024-02-24T04:41:37.050Z,6.00
2024-02-24T04:42:09.021Z,6.00
2024-02-24T04:42:40.915Z,6.00
2024-02-24T04:43:12.884Z,6.00
2024-02-24T04:43:44.862Z,6.00
2024-02-24T04:44:16.811Z,6.00
2024-02-24T04:44:50.913Z,6.00
2024-02-24T04:45:22.859Z,6.00
2024-02-24T04:45:54.779Z,6.00
2024-02-24T04:46:26.671Z,6.00
2024-02-24T04:46:58.673Z,6.00
2024-02-24T04:47:30.705Z,6.00
2024-02-24T04:48:02.889Z,6.00
2024-02-24T04:48:35.036Z,6.00
2024-02-24T04:49:07.124Z,6.00
2024-02-24T04:49:39.183Z,6.67
2024-02-24T04:50:11.313Z,7.00
2024-02-24T04:50:43.368Z,7.00
2024-02-24T04:51:15.304Z,7.00
2024-02-24T04:51:47.213Z,7.00
2024-02-24T04:52:19.323Z,7.00
2024-02-24T04:52:51.881Z,8.00
2024-02-24T04:53:23.835Z,8.00
2024-02-24T04:53:55.825Z,9.00
2024-02-24T04:54:27.673Z,9.33
2024-02-24T04:54:59.580Z,10.00
2024-02-24T04:55:31.569Z,10.67
2024-02-24T04:56:03.694Z,11.33
2024-02-24T04:56:35.802Z,12.00
2024-02-24T04:57:07.876Z,13.00
2024-02-24T04:57:39.799Z,13.67
2024-02-24T04:58:11.741Z,14.33
2024-02-24T04:58:44.239Z,15.33
2024-02-24T04:59:16.189Z,16.67
2024-02-24T04:59:48.278Z,17.67
2024-02-24T05:00:20.443Z,19.33
2024-02-24T05:00:52.497Z,20.67
2024-02-24T05:01:24.454Z,22.67
2024-02-24T05:01:56.387Z,25.00
2024-02-24T05:02:28.341Z,27.00
2024-02-24T05:03:00.317Z,30.00
2024-02-24T05:03:32.223Z,33.00
2024-02-24T05:04:04.164Z,36.00
2024-02-24T05:04:36.113Z,38.00
2024-02-24T05:05:08.694Z,40.00
2024-02-24T05:05:42.578Z,41.00
2024-02-24T05:06:14.802Z,41.00
2024-02-24T05:06:46.802Z,40.67
2024-02-24T05:07:18.769Z,40.00
2024-02-24T05:07:50.679Z,39.33
2024-02-24T05:08:22.763Z,39.00
2024-02-24T05:08:54.801Z,38.33
2024-02-24T05:09:26.866Z,38.00
2024-02-24T05:09:58.993Z,38.67
2024-02-24T05:10:30.927Z,39.33
2024-02-24T05:11:02.851Z,40.00
2024-02-24T05:11:34.890Z,40.00
2024-02-24T05:12:07.177Z,40.00
2024-02-24T05:12:39.238Z,40.00
2024-02-24T05:13:11.121Z,40.00
2024-02-24T05:13:43.063Z,40.00
2024-02-24T05:14:18.682Z,39.33
2024-02-24T05:14:50.737Z,39.00
2024-02-24T05:15:22.757Z,39.67
2024-02-24T05:15:54.646Z,40.00
2024-02-24T05:16:26.570Z,40.00
2024-02-24T05:16:58.495Z,40.00
2024-02-24T05:17:30.579Z,40.00
2024-02-24T05:18:02.922Z,39.00
2024-02-24T05:18:35.073Z,38.33
2024-02-24T05:19:07.455Z,37.00
2024-02-24T05:19:39.406Z,35.00
2024-02-24T05:20:13.978Z,32.33
2024-02-24T05:20:46.143Z,29.00
2024-02-24T05:21:22.325Z,26.00
2024-02-24T05:21:56.255Z,23.00
2024-02-24T05:22:28.531Z,21.33
2024-02-24T05:23:02.151Z,21.00
2024-02-24T05:23:34.123Z,21.00
2024-02-24T05:24:07.237Z,21.00
2024-02-24T05:24:39.320Z,21.00
2024-02-24T05:25:11.306Z,21.00
2024-02-24T05:25:43.975Z,20.00
2024-02-24T05:26:27.183Z,20.00
2024-02-24T05:26:59.530Z,20.00
2024-02-24T05:27:34.422Z,20.00
2024-02-24T05:28:06.491Z,20.00
2024-02-24T05:28:38.440Z,20.00
2024-02-24T05:29:10.386Z,20.00
2024-02-24T05:29:47.476Z,20.00
2024-02-24T05:30:19.691Z,20.00
2024-02-24T05:30:51.759Z,20.33
2024-02-24T05:31:24.404Z,21.00
2024-02-24T05:31:56.480Z,21.00
2024-02-24T05:32:28.537Z,21.00
2024-02-24T05:33:00.601Z,21.00
2024-02-24T05:33:32.687Z,21.00
2024-02-24T05:34:04.723Z,22.00
2024-02-24T05:34:36.710Z,22.00
2024-02-24T05:35:09.248Z,22.00
2024-02-24T05:35:41.261Z,22.00
2024-02-24T05:36:15.159Z,22.00
2024-02-24T05:36:47.168Z,23.00
2024-02-24T05:37:19.227Z,23.00
2024-02-24T05:37:51.350Z,23.00
2024-02-24T05:38:23.271Z,23.00
2024-02-24T05:38:55.250Z,23.33
2024-02-24T05:39:27.230Z,24.00
2024-02-24T05:39:59.751Z,25.00
2024-02-24T05:40:31.744Z,25.67
2024-02-24T05:41:04.055Z,26.00
2024-02-24T05:41:36.205Z,26.00
2024-02-24T05:42:08.506Z,26.00
2024-02-24T05:42:42.673Z,26.00
2024-02-24T05:43:14.599Z,25.67
2024-02-24T05:43:46.474Z,25.00
2024-02-24T05:44:18.726Z,24.33
2024-02-24T05:44:50.721Z,24.00
2024-02-24T05:45:22.672Z,24.00
2024-02-24T05:46:00.508Z,24.00
2024-02-24T05:46:33.985Z,24.00
2024-02-24T05:47:06.270Z,24.00
2024-02-24T05:47:38.566Z,23.33
2024-02-24T05:48:10.692Z,22.67
2024-02-24T05:48:42.781Z,21.67
2024-02-24T05:49:14.786Z,20.33
2024-02-24T05:49:46.733Z,20.00
2024-02-24T05:50:18.689Z,19.00
2024-02-24T05:50:50.859Z,19.00
2024-02-24T05:51:22.943Z,19.00
2024-02-24T05:51:54.877Z,19.00
2024-02-24T05:52:26.763Z,18.00
2024-02-24T05:52:58.707Z,16.67
2024-02-24T05:53:30.549Z,15.67
2024-02-24T05:54:02.517Z,15.00
2024-02-24T05:54:34.461Z,14.00
2024-02-24T05:55:09.082Z,13.67
2024-02-24T05:55:44.391Z,13.00
2024-02-24T05:56:17.153Z,12.67
2024-02-24T05:56:49.172Z,12.00
2024-02-24T05:57:21.084Z,12.00
2024-02-24T05:57:53.000Z,12.00
2024-02-24T05:58:24.961Z,12.00
2024-02-24T05:58:56.896Z,12.00
2024-02-24T05:59:29.498Z,11.33
2024-02-24T06:00:01.601Z,11.00
2024-02-24T06:00:33.528Z,11.00
2024-02-24T06:01:05.557Z,11.00
2024-02-24T06:01:37.518Z,11.00
2024-02-24T06:02:09.597Z,11.00
2024-02-24T06:02:41.672Z,11.00
2024-02-24T06:03:13.713Z,11.00
2024-02-24T06:03:45.950Z,11.00
2024-02-24T06:04:19.023Z,11.00
2024-02-24T06:04:51.946Z,11.00
2024-02-24T06:05:23.926Z,11.00
2024-02-24T06:05:56.001Z,11.00
2024-02-24T06:06:28.793Z,11.00
2024-02-24T06:07:00.862Z,11.33
2024-02-24T06:07:33.407Z,12.00
2024-02-24T06:08:06.507Z,12.00
2024-02-24T06:08:38.636Z,12.00
2024-02-24T06:09:11.371Z,12.00
2024-02-24T06:09:43.377Z,12.33
2024-02-24T06:10:15.333Z,13.00
2024-02-24T06:10:48.371Z,13.67
2024-02-24T06:11:20.435Z,14.33
2024-02-24T06:11:52.485Z,15.33
2024-02-24T06:12:24.868Z,16.67
2024-02-24T06:12:56.789Z,18.33
2024-02-24T06:13:28.686Z,19.33
2024-02-24T06:14:00.602Z,21.00
2024-02-24T06:14:32.526Z,25.00
2024-02-24T06:15:04.772Z,33.00
2024-02-24T06:15:36.660Z,42.00
2024-02-24T06:16:08.937Z,45.33
2024-02-24T06:16:40.839Z,44.00
2024-02-24T06:17:12.878Z,42.00
2024-02-24T06:17:44.893Z,40.33
2024-02-24T06:18:17.184Z,39.33
2024-02-24T06:18:49.425Z,38.67
2024-02-24T06:19:21.453Z,38.00
2024-02-24T06:19:53.403Z,38.00
2024-02-24T06:20:25.517Z,39.00
2024-02-24T06:20:57.768Z,39.00
2024-02-24T06:21:33.520Z,38.67
2024-02-24T06:22:05.523Z,38.00
2024-02-24T06:22:37.419Z,37.33
2024-02-24T06:23:09.326Z,37.00
2024-02-24T06:23:41.336Z,37.00
2024-02-24T06:24:13.625Z,39.00
2024-02-24T06:24:45.514Z,40.67
2024-02-24T06:25:17.657Z,42.00
2024-02-24T06:25:49.611Z,41.67
2024-02-24T06:26:21.492Z,41.00
2024-02-24T06:26:53.463Z,41.33
2024-02-24T06:27:25.896Z,45.67
2024-02-24T06:27:57.984Z,58.67
2024-02-24T06:28:30.203Z,65.00
2024-02-24T06:29:02.085Z,67.00
2024-02-24T06:29:34.201Z,76.00
2024-02-24T06:30:07.503Z,87.33
2024-02-24T06:30:39.727Z,87.00
2024-02-24T06:31:12.578Z,79.00
2024-02-24T06:31:44.495Z,70.67
2024-02-24T06:32:16.388Z,66.00
2024-02-24T06:32:48.821Z,64.00
2024-02-24T06:33:20.930Z,62.67
2024-02-24T06:33:52.978Z,62.33
2024-02-24T06:34:25.022Z,75.33
2024-02-24T06:34:57.017Z,89.33
2024-02-24T06:35:28.909Z,100.67
2024-02-24T06:36:00.953Z,111.00
2024-02-24T06:36:32.831Z,102.00
2024-02-24T06:37:04.849Z,98.67
2024-02-24T06:37:36.786Z,96.33
2024-02-24T06:38:08.780Z,95.00
2024-02-24T06:38:40.762Z,92.67
2024-02-24T06:39:12.874Z,87.33
2024-02-24T06:39:44.855Z,84.67
2024-02-24T06:40:25.911Z,83.67
2024-02-24T06:41:05.094Z,82.00
2024-02-24T06:41:37.029Z,80.00
2024-02-24T06:42:08.990Z,79.00
2024-02-24T06:42:40.900Z,80.33
2024-02-24T06:43:13.122Z,82.00
2024-02-24T06:43:45.858Z,81.67
2024-02-24T06:44:18.540Z,81.00
2024-02-24T06:44:50.466Z,81.67
2024-02-24T06:45:22.468Z,94.33
2024-02-24T06:45:54.446Z,110.67
2024-02-24T06:46:29.042Z,108.67
2024-02-24T06:47:04.438Z,100.33
2024-02-24T06:47:41.010Z,95.00
2024-02-24T06:48:13.071Z,93.33
2024-02-24T06:48:47.787Z,91.00
2024-02-24T06:49:20.625Z,85.67
2024-02-24T06:49:52.853Z,75.00
2024-02-24T06:50:24.845Z,64.67
2024-02-24T06:50:56.814Z,56.33
2024-02-24T06:51:28.713Z,50.33
2024-02-24T06:52:00.691Z,46.00
2024-02-24T06:52:32.594Z,43.00
2024-02-24T06:53:06.923Z,42.67
2024-02-24T06:53:38.851Z,46.00
2024-02-24T06:54:10.847Z,48.33
2024-02-24T06:54:42.849Z,50.67
2024-02-24T06:55:14.877Z,52.33
2024-02-24T06:55:46.780Z,53.33
2024-02-24T06:56:21.696Z,54.33
2024-02-24T06:56:53.729Z,55.00